sensor_id;sensor_type;location;lat;lon;timestamp;pressure;altitude;pressure_sealevel;temperature;humidity
75681;BME280;64294;49.176;16.626;2023-01-24T00:00:45;100851.03;;;1.99;100.00
75681;BME280;64294;49.176;16.626;2023-01-24T00:03:10;100856.25;;;1.97;100.00
75681;BME280;64294;49.176;16.626;2023-01-24T00:05:43;100847.94;;;1.97;100.00
75681;BME280;64294;49.176;16.626;2023-01-24T00:08:10;100840.28;;;2.01;100.00
75681;BME280;64294;49.176;16.626;2023-01-24T00:10:37;100847.47;;;1.99;100.00
75681;BME280;64294;49.176;16.626;2023-01-24T00:13:03;100849.81;;;2.00;100.00
75681;BME280;64294;49.176;16.626;2023-01-24T00:15:28;100851.47;;;1.98;100.00
75681;BME280;64294;49.176;16.626;2023-01-24T00:17:53;100851.03;;;1.99;100.00
75681;BME280;64294;49.176;16.626;2023-01-24T00:20:19;100859.78;;;1.98;100.00
75681;BME280;64294;49.176;16.626;2023-01-24T00:22:44;100859.00;;;1.97;100.00
75681;BME280;64294;49.176;16.626;2023-01-24T00:25:10;100854.34;;;1.94;100.00
75681;BME280;64294;49.176;16.626;2023-01-24T00:27:35;100856.34;;;1.94;100.00
75681;BME280;64294;49.176;16.626;2023-01-24T00:30:02;100857.34;;;2.00;100.00
75681;BME280;64294;49.176;16.626;2023-01-24T00:32:27;100851.63;;;2.07;100.00
75681;BME280;64294;49.176;16.626;2023-01-24T00:34:53;100858.72;;;2.21;100.00
75681;BME280;64294;49.176;16.626;2023-01-24T00:37:18;100851.94;;;2.22;100.00
75681;BME280;64294;49.176;16.626;2023-01-24T00:39:43;100845.88;;;2.27;100.00
75681;BME280;64294;49.176;16.626;2023-01-24T00:42:09;100854.28;;;2.23;100.00
75681;BME280;64294;49.176;16.626;2023-01-24T00:44:34;100861.16;;;2.31;100.00
75681;BME280;64294;49.176;16.626;2023-01-24T00:47:00;100863.16;;;2.18;100.00
75681;BME280;64294;49.176;16.626;2023-01-24T00:49:25;100856.97;;;2.27;100.00
75681;BME280;64294;49.176;16.626;2023-01-24T00:51:50;100853.28;;;2.30;100.00
75681;BME280;64294;49.176;16.626;2023-01-24T00:54:16;100852.72;;;2.35;100.00
75681;BME280;64294;49.176;16.626;2023-01-24T00:56:41;100854.84;;;2.31;100.00
75681;BME280;64294;49.176;16.626;2023-01-24T00:59:07;100861.94;;;2.32;100.00
75681;BME280;64294;49.176;16.626;2023-01-24T01:01:32;100856.72;;;2.34;100.00
75681;BME280;64294;49.176;16.626;2023-01-24T01:03:57;100859.38;;;2.37;100.00
75681;BME280;64294;49.176;16.626;2023-01-24T01:06:24;100861.28;;;2.40;100.00
75681;BME280;64294;49.176;16.626;2023-01-24T01:08:50;100862.41;;;2.43;100.00
75681;BME280;64294;49.176;16.626;2023-01-24T01:11:15;100860.84;;;2.42;100.00
75681;BME280;64294;49.176;16.626;2023-01-24T01:13:41;100857.63;;;2.43;100.00
75681;BME280;64294;49.176;16.626;2023-01-24T01:16:15;100856.28;;;2.35;100.00
75681;BME280;64294;49.176;16.626;2023-01-24T01:18:44;100860.41;;;2.31;100.00
75681;BME280;64294;49.176;16.626;2023-01-24T01:21:14;100857.28;;;2.29;100.00
75681;BME280;64294;49.176;16.626;2023-01-24T01:23:40;100849.75;;;2.42;100.00
75681;BME280;64294;49.176;16.626;2023-01-24T01:26:07;100866.50;;;2.38;100.00
75681;BME280;64294;49.176;16.626;2023-01-24T01:28:34;100860.50;;;2.40;100.00
75681;BME280;64294;49.176;16.626;2023-01-24T01:31:01;100862.50;;;2.39;100.00
75681;BME280;64294;49.176;16.626;2023-01-24T01:33:29;100865.38;;;2.36;100.00
75681;BME280;64294;49.176;16.626;2023-01-24T01:35:55;100868.16;;;2.36;100.00
75681;BME280;64294;49.176;16.626;2023-01-24T01:38:20;100862.50;;;2.39;100.00
75681;BME280;64294;49.176;16.626;2023-01-24T01:40:46;100861.38;;;2.37;100.00
75681;BME280;64294;49.176;16.626;2023-01-24T01:43:14;100866.81;;;2.40;100.00
75681;BME280;64294;49.176;16.626;2023-01-24T01:45:43;100858.94;;;2.39;100.00
75681;BME280;64294;49.176;16.626;2023-01-24T01:48:35;100867.81;;;2.34;100.00
75681;BME280;64294;49.176;16.626;2023-01-24T01:53:47;100880.03;;;2.36;100.00
75681;BME280;64294;49.176;16.626;2023-01-24T01:56:36;100886.34;;;2.37;100.00
75681;BME280;64294;49.176;16.626;2023-01-24T01:59:10;100883.91;;;2.39;100.00
75681;BME280;64294;49.176;16.626;2023-01-24T02:01:37;100888.59;;;2.42;100.00
75681;BME280;64294;49.176;16.626;2023-01-24T02:04:13;100884.59;;;2.43;100.00
75681;BME280;64294;49.176;16.626;2023-01-24T02:09:29;100886.50;;;2.46;100.00
75681;BME280;64294;49.176;16.626;2023-01-24T02:12:00;100892.47;;;2.45;100.00
75681;BME280;64294;49.176;16.626;2023-01-24T02:14:27;100888.50;;;2.46;100.00
75681;BME280;64294;49.176;16.626;2023-01-24T02:17:18;100892.91;;;2.56;100.00
75681;BME280;64294;49.176;16.626;2023-01-24T02:19:50;100879.59;;;2.51;100.00
75681;BME280;64294;49.176;16.626;2023-01-24T02:27:46;100874.81;;;2.51;100.00
75681;BME280;64294;49.176;16.626;2023-01-24T02:30:11;100876.50;;;2.49;100.00
75681;BME280;64294;49.176;16.626;2023-01-24T02:32:37;100874.16;;;2.47;100.00
75681;BME280;64294;49.176;16.626;2023-01-24T02:35:03;100883.72;;;2.46;100.00
75681;BME280;64294;49.176;16.626;2023-01-24T02:37:29;100883.81;;;2.42;100.00
75681;BME280;64294;49.176;16.626;2023-01-24T02:40:03;100879.91;;;2.40;100.00
75681;BME280;64294;49.176;16.626;2023-01-24T02:42:34;100888.94;;;2.44;100.00
75681;BME280;64294;49.176;16.626;2023-01-24T02:47:46;100880.69;;;2.40;100.00
75681;BME280;64294;49.176;16.626;2023-01-24T02:50:12;100878.94;;;2.47;100.00
75681;BME280;64294;49.176;16.626;2023-01-24T02:52:38;100880.81;;;2.37;100.00
75681;BME280;64294;49.176;16.626;2023-01-24T02:55:22;100876.16;;;2.34;100.00
75681;BME280;64294;49.176;16.626;2023-01-24T02:57:48;100885.59;;;2.36;100.00
75681;BME280;64294;49.176;16.626;2023-01-24T03:00:41;100884.38;;;2.25;100.00
75681;BME280;64294;49.176;16.626;2023-01-24T03:03:08;100889.03;;;2.28;100.00
75681;BME280;64294;49.176;16.626;2023-01-24T03:05:35;100886.91;;;2.32;100.00
75681;BME280;64294;49.176;16.626;2023-01-24T03:08:21;100891.47;;;2.26;100.00
75681;BME280;64294;49.176;16.626;2023-01-24T03:10:46;100896.34;;;2.34;100.00
75681;BME280;64294;49.176;16.626;2023-01-24T03:13:12;100894.47;;;2.31;100.00
75681;BME280;64294;49.176;16.626;2023-01-24T03:16:00;100902.56;;;2.26;100.00
75681;BME280;64294;49.176;16.626;2023-01-24T03:18:45;100896.75;;;2.20;100.00
75681;BME280;64294;49.176;16.626;2023-01-24T03:21:29;100895.25;;;2.32;100.00
75681;BME280;64294;49.176;16.626;2023-01-24T03:24:13;100892.69;;;2.37;100.00
75681;BME280;64294;49.176;16.626;2023-01-24T03:26:57;100898.34;;;2.34;100.00
75681;BME280;64294;49.176;16.626;2023-01-24T03:29:41;100892.34;;;2.35;100.00
75681;BME280;64294;49.176;16.626;2023-01-24T03:32:25;100895.00;;;2.39;100.00
75681;BME280;64294;49.176;16.626;2023-01-24T03:35:09;100904.56;;;2.38;100.00
75681;BME280;64294;49.176;16.626;2023-01-24T03:37:34;100896.78;;;2.33;100.00
75681;BME280;64294;49.176;16.626;2023-01-24T03:40:18;100903.91;;;2.34;100.00
75681;BME280;64294;49.176;16.626;2023-01-24T03:42:43;100907.66;;;2.40;100.00
75681;BME280;64294;49.176;16.626;2023-01-24T03:45:14;100909.66;;;2.39;100.00
75681;BME280;64294;49.176;16.626;2023-01-24T03:47:54;100913.44;;;2.33;100.00
75681;BME280;64294;49.176;16.626;2023-01-24T03:50:36;100926.31;;;2.27;100.00
75681;BME280;64294;49.176;16.626;2023-01-24T03:53:24;100910.19;;;2.22;100.00
75681;BME280;64294;49.176;16.626;2023-01-24T03:55:54;100903.56;;;2.32;100.00
75681;BME280;64294;49.176;16.626;2023-01-24T03:58:20;100909.34;;;2.37;100.00
75681;BME280;64294;49.176;16.626;2023-01-24T04:00:49;100903.91;;;2.34;100.00
75681;BME280;64294;49.176;16.626;2023-01-24T04:03:14;100907.34;;;2.38;100.00
75681;BME280;64294;49.176;16.626;2023-01-24T04:05:40;100908.00;;;2.29;100.00
75681;BME280;64294;49.176;16.626;2023-01-24T04:08:06;100910.00;;;2.29;100.00
75681;BME280;64294;49.176;16.626;2023-01-24T04:10:33;100901.13;;;2.34;100.00
75681;BME280;64294;49.176;16.626;2023-01-24T04:12:58;100903.44;;;2.35;100.00
75681;BME280;64294;49.176;16.626;2023-01-24T04:15:29;100902.22;;;2.36;99.85
75681;BME280;64294;49.176;16.626;2023-01-24T04:17:57;100898.34;;;2.34;100.00
75681;BME280;64294;49.176;16.626;2023-01-24T04:20:23;100896.13;;;2.29;100.00
75681;BME280;64294;49.176;16.626;2023-01-24T04:22:48;100896.56;;;2.27;100.00
75681;BME280;64294;49.176;16.626;2023-01-24T04:25:14;100899.22;;;2.31;100.00
75681;BME280;64294;49.176;16.626;2023-01-24T04:27:40;100893.69;;;2.31;100.00
75681;BME280;64294;49.176;16.626;2023-01-24T04:30:09;100899.56;;;2.33;100.00
75681;BME280;64294;49.176;16.626;2023-01-24T04:32:35;100887.69;;;2.32;100.00
75681;BME280;64294;49.176;16.626;2023-01-24T04:35:00;100877.94;;;2.28;100.00
75681;BME280;64294;49.176;16.626;2023-01-24T04:37:28;100881.81;;;2.30;100.00
75681;BME280;64294;49.176;16.626;2023-01-24T04:39:54;100885.69;;;2.33;100.00
75681;BME280;64294;49.176;16.626;2023-01-24T04:42:19;100882.47;;;2.34;100.00
75681;BME280;64294;49.176;16.626;2023-01-24T04:44:45;100894.00;;;2.33;100.00
75681;BME280;64294;49.176;16.626;2023-01-24T04:47:10;100892.78;;;2.34;100.00
75681;BME280;64294;49.176;16.626;2023-01-24T04:49:35;100890.47;;;2.32;100.00
75681;BME280;64294;49.176;16.626;2023-01-24T04:52:01;100905.78;;;2.37;100.00
75681;BME280;64294;49.176;16.626;2023-01-24T04:54:26;100906.22;;;2.35;100.00
75681;BME280;64294;49.176;16.626;2023-01-24T04:56:52;100906.78;;;2.30;100.00
75681;BME280;64294;49.176;16.626;2023-01-24T04:59:17;100904.34;;;2.32;100.00
75681;BME280;64294;49.176;16.626;2023-01-24T05:01:42;100907.44;;;2.34;100.00
75681;BME280;64294;49.176;16.626;2023-01-24T05:04:08;100911.88;;;2.32;100.00
75681;BME280;64294;49.176;16.626;2023-01-24T05:06:34;100909.66;;;2.27;100.00
75681;BME280;64294;49.176;16.626;2023-01-24T05:08:59;100912.31;;;2.30;100.00
75681;BME280;64294;49.176;16.626;2023-01-24T05:11:25;100911.09;;;2.31;100.00
75681;BME280;64294;49.176;16.626;2023-01-24T05:13:51;100911.09;;;2.31;100.00
75681;BME280;64294;49.176;16.626;2023-01-24T05:16:19;100901.34;;;2.27;100.00
75681;BME280;64294;49.176;16.626;2023-01-24T05:18:44;100904.34;;;2.32;100.00
75681;BME280;64294;49.176;16.626;2023-01-24T05:21:15;100911.00;;;2.35;100.00
75681;BME280;64294;49.176;16.626;2023-01-24T05:23:41;100913.78;;;2.35;100.00
75681;BME280;64294;49.176;16.626;2023-01-24T05:26:08;100915.09;;;2.30;100.00
75681;BME280;64294;49.176;16.626;2023-01-24T05:28:34;100920.94;;;2.20;100.00
75681;BME280;64294;49.176;16.626;2023-01-24T05:31:00;100923.75;;;2.32;100.00
75681;BME280;64294;49.176;16.626;2023-01-24T05:33:26;100920.88;;;2.23;100.00
75681;BME280;64294;49.176;16.626;2023-01-24T05:36:22;100919.44;;;2.31;100.00
75681;BME280;64294;49.176;16.626;2023-01-24T05:38:48;100923.88;;;2.29;100.00
75681;BME280;64294;49.176;16.626;2023-01-24T05:41:15;100930.19;;;2.29;100.00
75681;BME280;64294;49.176;16.626;2023-01-24T05:43:42;100931.53;;;2.25;100.00
75681;BME280;64294;49.176;16.626;2023-01-24T05:46:34;100930.97;;;2.30;100.00
75681;BME280;64294;49.176;16.626;2023-01-24T05:48:59;100925.44;;;2.30;100.00
75681;BME280;64294;49.176;16.626;2023-01-24T05:51:25;100929.97;;;2.24;100.00
75681;BME280;64294;49.176;16.626;2023-01-24T05:53:50;100933.31;;;2.31;100.00
75681;BME280;64294;49.176;16.626;2023-01-24T05:56:18;100934.63;;;2.27;100.00
75681;BME280;64294;49.176;16.626;2023-01-24T05:58:45;100936.97;;;2.28;100.00
75681;BME280;64294;49.176;16.626;2023-01-24T06:01:13;100939.16;;;2.21;100.00
75681;BME280;64294;49.176;16.626;2023-01-24T06:03:41;100942.19;;;2.26;100.00
75681;BME280;64294;49.176;16.626;2023-01-24T06:06:07;100946.69;;;2.20;100.00
75681;BME280;64294;49.176;16.626;2023-01-24T06:08:34;100944.72;;;2.33;100.00
75681;BME280;64294;49.176;16.626;2023-01-24T06:11:10;100954.16;;;2.36;100.00
75681;BME280;64294;49.176;16.626;2023-01-24T06:13:35;100952.50;;;2.38;100.00
75681;BME280;64294;49.176;16.626;2023-01-24T06:16:15;100954.84;;;2.40;100.00
75681;BME280;64294;49.176;16.626;2023-01-24T06:18:41;100953.06;;;2.33;100.00
75681;BME280;64294;49.176;16.626;2023-01-24T06:21:15;100954.72;;;2.31;100.00
75681;BME280;64294;49.176;16.626;2023-01-24T06:23:41;100958.50;;;2.24;100.00
75681;BME280;64294;49.176;16.626;2023-01-24T06:26:10;100954.25;;;2.20;100.00
75681;BME280;64294;49.176;16.626;2023-01-24T06:28:38;100955.94;;;2.30;100.00
75681;BME280;64294;49.176;16.626;2023-01-24T06:31:16;100965.16;;;2.27;100.00
75681;BME280;64294;49.176;16.626;2023-01-24T06:39:14;100978.09;;;2.17;100.00
75681;BME280;64294;49.176;16.626;2023-01-24T06:41:42;100978.69;;;2.25;100.00
75681;BME280;64294;49.176;16.626;2023-01-24T06:44:10;100979.66;;;2.18;100.00
75681;BME280;64294;49.176;16.626;2023-01-24T06:46:36;100986.00;;;2.31;100.00
75681;BME280;64294;49.176;16.626;2023-01-24T06:49:01;100980.03;;;2.33;100.00
75681;BME280;64294;49.176;16.626;2023-01-24T06:51:27;100986.56;;;2.39;100.00
75681;BME280;64294;49.176;16.626;2023-01-24T06:53:52;100994.56;;;2.37;100.00
75681;BME280;64294;49.176;16.626;2023-01-24T06:56:18;101000.44;;;2.39;100.00
75681;BME280;64294;49.176;16.626;2023-01-24T06:58:43;101002.38;;;2.42;100.00
75681;BME280;64294;49.176;16.626;2023-01-24T07:01:08;101009.31;;;2.34;100.00
75681;BME280;64294;49.176;16.626;2023-01-24T07:03:34;101016.00;;;2.36;100.00
75681;BME280;64294;49.176;16.626;2023-01-24T07:06:00;101013.88;;;2.40;100.00
75681;BME280;64294;49.176;16.626;2023-01-24T07:08:25;101013.09;;;2.40;99.97
75681;BME280;64294;49.176;16.626;2023-01-24T07:10:51;101018.47;;;2.47;99.73
75681;BME280;64294;49.176;16.626;2023-01-24T07:13:16;101014.66;;;2.41;100.00
75681;BME280;64294;49.176;16.626;2023-01-24T07:15:41;101010.00;;;2.38;100.00
75681;BME280;64294;49.176;16.626;2023-01-24T07:18:08;101017.88;;;2.39;100.00
75681;BME280;64294;49.176;16.626;2023-01-24T07:20:34;101009.38;;;2.47;100.00
75681;BME280;64294;49.176;16.626;2023-01-24T07:22:59;101015.69;;;2.47;100.00
75681;BME280;64294;49.176;16.626;2023-01-24T07:25:26;101020.13;;;2.45;100.00
75681;BME280;64294;49.176;16.626;2023-01-24T07:27:52;101024.69;;;2.51;99.51
75681;BME280;64294;49.176;16.626;2023-01-24T07:30:17;101027.41;;;2.38;99.65
75681;BME280;64294;49.176;16.626;2023-01-24T07:32:43;101032.19;;;2.38;99.92
75681;BME280;64294;49.176;16.626;2023-01-24T07:35:08;101044.72;;;2.30;100.00
75681;BME280;64294;49.176;16.626;2023-01-24T07:37:34;101047.97;;;2.41;99.88
75681;BME280;64294;49.176;16.626;2023-01-24T07:39:59;101053.88;;;2.43;99.50
75681;BME280;64294;49.176;16.626;2023-01-24T07:42:25;101049.09;;;2.43;99.09
75681;BME280;64294;49.176;16.626;2023-01-24T07:44:50;101050.88;;;2.50;98.55
75681;BME280;64294;49.176;16.626;2023-01-24T07:47:15;101055.44;;;2.57;98.65
75681;BME280;64294;49.176;16.626;2023-01-24T07:49:41;101057.56;;;2.53;98.78
75681;BME280;64294;49.176;16.626;2023-01-24T07:52:07;101053.56;;;2.54;98.95
75681;BME280;64294;49.176;16.626;2023-01-24T07:54:32;101068.53;;;2.56;98.56
75681;BME280;64294;49.176;16.626;2023-01-24T07:56:59;101067.25;;;2.61;97.77
75681;BME280;64294;49.176;16.626;2023-01-24T07:59:24;101056.47;;;2.63;97.39
75681;BME280;64294;49.176;16.626;2023-01-24T08:01:50;101065.59;;;2.63;97.57
75681;BME280;64294;49.176;16.626;2023-01-24T08:04:15;101061.69;;;2.61;96.97
75681;BME280;64294;49.176;16.626;2023-01-24T08:06:41;101063.00;;;2.56;97.61
75681;BME280;64294;49.176;16.626;2023-01-24T08:09:29;101072.81;;;2.61;97.21
75681;BME280;64294;49.176;16.626;2023-01-24T08:11:55;101066.03;;;2.62;96.71
75681;BME280;64294;49.176;16.626;2023-01-24T08:14:21;101066.25;;;2.67;96.49
75681;BME280;64294;49.176;16.626;2023-01-24T08:16:48;101071.03;;;2.67;97.01
75681;BME280;64294;49.176;16.626;2023-01-24T08:19:13;101074.91;;;2.69;96.05
75681;BME280;64294;49.176;16.626;2023-01-24T08:21:38;101085.91;;;2.73;95.83
75681;BME280;64294;49.176;16.626;2023-01-24T08:24:04;101079.41;;;2.80;95.38
75681;BME280;64294;49.176;16.626;2023-01-24T08:26:29;101076.47;;;2.70;96.00
75681;BME280;64294;49.176;16.626;2023-01-24T08:28:55;101083.25;;;2.69;96.07
75681;BME280;64294;49.176;16.626;2023-01-24T08:31:20;101093.81;;;2.74;95.87
75681;BME280;64294;49.176;16.626;2023-01-24T08:33:46;101085.03;;;2.76;95.83
75681;BME280;64294;49.176;16.626;2023-01-24T08:36:11;101087.63;;;2.83;95.26
75681;BME280;64294;49.176;16.626;2023-01-24T08:38:37;101093.19;;;2.96;94.62
75681;BME280;64294;49.176;16.626;2023-01-24T08:41:03;101098.06;;;2.92;94.60
75681;BME280;64294;49.176;16.626;2023-01-24T08:43:29;101093.53;;;2.98;93.27
75681;BME280;64294;49.176;16.626;2023-01-24T08:45:54;101097.09;;;3.11;93.13
75681;BME280;64294;49.176;16.626;2023-01-24T08:48:20;101102.31;;;3.09;93.39
75681;BME280;64294;49.176;16.626;2023-01-24T08:50:46;101103.44;;;3.12;93.24
75681;BME280;64294;49.176;16.626;2023-01-24T08:53:11;101098.13;;;3.17;93.82
75681;BME280;64294;49.176;16.626;2023-01-24T08:55:36;101098.78;;;3.21;92.84
75681;BME280;64294;49.176;16.626;2023-01-24T08:58:03;101105.56;;;3.20;92.67
75681;BME280;64294;49.176;16.626;2023-01-24T09:00:29;101106.91;;;3.28;91.63
75681;BME280;64294;49.176;16.626;2023-01-24T09:02:55;101106.91;;;3.28;92.06
75681;BME280;64294;49.176;16.626;2023-01-24T09:05:23;101114.78;;;3.17;92.96
75681;BME280;64294;49.176;16.626;2023-01-24T09:07:49;101107.44;;;3.23;92.63
75681;BME280;64294;49.176;16.626;2023-01-24T09:10:14;101104.56;;;3.27;91.89
75681;BME280;64294;49.176;16.626;2023-01-24T09:12:40;101104.13;;;3.28;91.64
75681;BME280;64294;49.176;16.626;2023-01-24T09:15:05;101107.78;;;3.25;92.19
75681;BME280;64294;49.176;16.626;2023-01-24T09:17:32;101111.66;;;3.28;92.35
75681;BME280;64294;49.176;16.626;2023-01-24T09:19:59;101112.78;;;3.30;91.84
75681;BME280;64294;49.176;16.626;2023-01-24T09:22:25;101125.78;;;3.21;91.95
75681;BME280;64294;49.176;16.626;2023-01-24T09:24:50;101120.66;;;3.32;90.04
75681;BME280;64294;49.176;16.626;2023-01-24T09:27:15;101117.78;;;3.23;91.11
75681;BME280;64294;49.176;16.626;2023-01-24T09:29:41;101120.56;;;3.23;91.58
75681;BME280;64294;49.176;16.626;2023-01-24T09:32:06;101114.78;;;3.17;91.86
75681;BME280;64294;49.176;16.626;2023-01-24T09:34:32;101108.00;;;3.31;91.83
75681;BME280;64294;49.176;16.626;2023-01-24T09:36:57;101122.16;;;3.37;91.24
75681;BME280;64294;49.176;16.626;2023-01-24T09:39:22;101116.47;;;3.40;90.05
75681;BME280;64294;49.176;16.626;2023-01-24T09:41:59;101121.91;;;3.44;90.31
75681;BME280;64294;49.176;16.626;2023-01-24T09:44:47;101105.56;;;3.46;89.83
75681;BME280;64294;49.176;16.626;2023-01-24T09:47:26;101108.34;;;3.46;90.38
75681;BME280;64294;49.176;16.626;2023-01-24T09:50:04;101108.25;;;3.37;90.94
75681;BME280;64294;49.176;16.626;2023-01-24T09:52:39;101097.56;;;3.48;90.31
75681;BME280;64294;49.176;16.626;2023-01-24T09:55:16;101097.47;;;3.39;90.14
75681;BME280;64294;49.176;16.626;2023-01-24T09:57:51;101102.25;;;3.38;89.44
75681;BME280;64294;49.176;16.626;2023-01-24T10:00:35;101108.13;;;3.27;90.76
75681;BME280;64294;49.176;16.626;2023-01-24T10:03:01;101104.13;;;3.41;91.85
75681;BME280;64294;49.176;16.626;2023-01-24T10:05:37;101105.78;;;3.64;92.96
75681;BME280;64294;49.176;16.626;2023-01-24T10:13:02;101102.56;;;3.53;90.83
75681;BME280;64294;49.176;16.626;2023-01-24T10:15:43;101102.66;;;3.62;90.29
75681;BME280;64294;49.176;16.626;2023-01-24T10:23:39;101103.00;;;3.64;88.61
75681;BME280;64294;49.176;16.626;2023-01-24T10:26:20;101098.47;;;3.57;88.87
75681;BME280;64294;49.176;16.626;2023-01-24T10:28:51;101100.47;;;3.57;89.24
75681;BME280;64294;49.176;16.626;2023-01-24T10:31:30;101097.00;;;3.53;89.69
75681;BME280;64294;49.176;16.626;2023-01-24T10:34:12;101097.00;;;3.53;89.93
75681;BME280;64294;49.176;16.626;2023-01-24T10:36:45;101093.34;;;3.56;90.05
75681;BME280;64294;49.176;16.626;2023-01-24T10:39:13;101094.88;;;3.70;88.54
75681;BME280;64294;49.176;16.626;2023-01-24T10:41:39;101091.56;;;3.62;88.95
75681;BME280;64294;49.176;16.626;2023-01-24T10:46:55;101085.53;;;3.63;88.66
75681;BME280;64294;49.176;16.626;2023-01-24T10:49:39;101091.22;;;3.60;89.31
75681;BME280;64294;49.176;16.626;2023-01-24T10:52:19;101088.44;;;3.60;88.92
75681;BME280;64294;49.176;16.626;2023-01-24T11:02:32;101082.31;;;3.65;88.73
75681;BME280;64294;49.176;16.626;2023-01-24T11:05:03;101080.31;;;3.65;89.15
75681;BME280;64294;49.176;16.626;2023-01-24T11:07:32;101076.75;;;3.65;89.08
75681;BME280;64294;49.176;16.626;2023-01-24T11:10:00;101079.31;;;3.59;89.49
75681;BME280;64294;49.176;16.626;2023-01-24T11:12:26;101078.50;;;3.72;89.34
75681;BME280;64294;49.176;16.626;2023-01-24T11:14:52;101070.22;;;3.59;88.81
75681;BME280;64294;49.176;16.626;2023-01-24T11:17:31;101072.09;;;3.62;89.59
75681;BME280;64294;49.176;16.626;2023-01-24T11:20:27;101077.00;;;3.58;89.24
75681;BME280;64294;49.176;16.626;2023-01-24T11:23:12;101070.97;;;3.72;88.56
75681;BME280;64294;49.176;16.626;2023-01-24T11:26:00;101067.19;;;3.66;89.65
75681;BME280;64294;49.176;16.626;2023-01-24T11:28:31;101061.94;;;3.68;88.82
75681;BME280;64294;49.176;16.626;2023-01-24T11:31:28;101068.41;;;3.65;89.11
75681;BME280;64294;49.176;16.626;2023-01-24T11:39:43;101053.84;;;3.61;89.10
75681;BME280;64294;49.176;16.626;2023-01-24T11:42:26;101058.50;;;3.64;89.81
75681;BME280;64294;49.176;16.626;2023-01-24T11:47:27;101048.59;;;3.76;88.64
75681;BME280;64294;49.176;16.626;2023-01-24T11:50:31;101042.81;;;3.70;88.48
75681;BME280;64294;49.176;16.626;2023-01-24T11:55:38;101042.59;;;3.64;89.34
75681;BME280;64294;49.176;16.626;2023-01-24T12:12:37;101028.25;;;3.66;88.72
75681;BME280;64294;49.176;16.626;2023-01-24T12:18:04;101029.59;;;3.74;88.20
75681;BME280;64294;49.176;16.626;2023-01-24T12:26:31;101020.16;;;3.59;88.40
75681;BME280;64294;49.176;16.626;2023-01-24T12:28:57;101016.16;;;3.60;89.36
75681;BME280;64294;49.176;16.626;2023-01-24T12:31:35;101026.50;;;3.59;88.30
75681;BME280;64294;49.176;16.626;2023-01-24T12:34:13;101022.06;;;3.49;88.61
75681;BME280;64294;49.176;16.626;2023-01-24T12:36:52;101018.38;;;3.52;88.46
75681;BME280;64294;49.176;16.626;2023-01-24T12:39:24;101012.63;;;3.47;89.16
75681;BME280;64294;49.176;16.626;2023-01-24T12:41:57;101013.25;;;3.51;89.16
75681;BME280;64294;49.176;16.626;2023-01-24T12:44:33;101011.81;;;3.59;88.50
75681;BME280;64294;49.176;16.626;2023-01-24T12:47:15;101017.13;;;3.66;88.63
75681;BME280;64294;49.176;16.626;2023-01-24T12:55:14;101004.84;;;3.54;88.96
75681;BME280;64294;49.176;16.626;2023-01-24T12:57:45;101007.81;;;3.60;88.61
75681;BME280;64294;49.176;16.626;2023-01-24T13:00:17;101007.81;;;3.60;88.14
75681;BME280;64294;49.176;16.626;2023-01-24T13:05:37;101014.28;;;3.44;89.08
75681;BME280;64294;49.176;16.626;2023-01-24T13:08:14;101014.94;;;3.48;88.68
75681;BME280;64294;49.176;16.626;2023-01-24T13:13:21;101011.25;;;3.51;89.36
75681;BME280;64294;49.176;16.626;2023-01-24T13:30:22;101008.28;;;3.46;89.34
75681;BME280;64294;49.176;16.626;2023-01-24T13:32:53;101015.84;;;3.45;89.40
75681;BME280;64294;49.176;16.626;2023-01-24T13:35:23;101009.75;;;3.38;90.50
75681;BME280;64294;49.176;16.626;2023-01-24T13:37:59;101014.41;;;3.41;90.25
75681;BME280;64294;49.176;16.626;2023-01-24T13:40:28;101008.97;;;3.37;90.58
75681;BME280;64294;49.176;16.626;2023-01-24T13:42:57;101011.31;;;3.39;90.77
75681;BME280;64294;49.176;16.626;2023-01-24T13:47:48;101016.63;;;3.33;90.09
75681;BME280;64294;49.176;16.626;2023-01-24T13:50:24;101011.84;;;3.33;90.69
75681;BME280;64294;49.176;16.626;2023-01-24T13:52:57;101020.75;;;3.28;91.33
75681;BME280;64294;49.176;16.626;2023-01-24T14:00:19;101030.31;;;3.40;90.48
75681;BME280;64294;49.176;16.626;2023-01-24T14:08:00;101028.53;;;3.33;91.20
75681;BME280;64294;49.176;16.626;2023-01-24T14:12:57;101034.66;;;3.41;90.73
75681;BME280;64294;49.176;16.626;2023-01-24T14:15:28;101035.63;;;3.34;91.33
75681;BME280;64294;49.176;16.626;2023-01-24T14:17:59;101032.06;;;3.34;91.49
75681;BME280;64294;49.176;16.626;2023-01-24T14:20:45;101035.63;;;3.34;91.34
75681;BME280;64294;49.176;16.626;2023-01-24T14:23:21;101029.66;;;3.23;91.77
75681;BME280;64294;49.176;16.626;2023-01-24T14:25:52;101028.09;;;3.35;91.93
75681;BME280;64294;49.176;16.626;2023-01-24T14:28:40;101037.53;;;3.25;92.23
75681;BME280;64294;49.176;16.626;2023-01-24T14:31:22;101041.75;;;3.29;91.45
75681;BME280;64294;49.176;16.626;2023-01-24T14:33:54;101027.97;;;3.26;91.73
75681;BME280;64294;49.176;16.626;2023-01-24T14:36:28;101031.09;;;3.28;90.71
75681;BME280;64294;49.176;16.626;2023-01-24T14:41:49;101038.44;;;3.22;91.00
75681;BME280;64294;49.176;16.626;2023-01-24T14:44:22;101039.88;;;3.26;91.22
75681;BME280;64294;49.176;16.626;2023-01-24T14:46:53;101047.56;;;3.22;91.14
75681;BME280;64294;49.176;16.626;2023-01-24T14:49:44;101035.88;;;3.27;91.64
75681;BME280;64294;49.176;16.626;2023-01-24T14:52:30;101035.31;;;3.32;91.86
75681;BME280;64294;49.176;16.626;2023-01-24T14:55:12;101042.00;;;3.35;91.34
75681;BME280;64294;49.176;16.626;2023-01-24T14:57:45;101041.63;;;3.46;90.99